createdAt,value
2023-04-03T00:01:29.934Z,97700.84
2023-04-03T00:04:02.177Z,97706.31
2023-04-03T00:06:31.368Z,97703.47
2023-04-03T00:09:00.836Z,97699.47
2023-04-03T00:11:29.546Z,97696.44
2023-04-03T00:13:58.275Z,97705.09
2023-04-03T00:16:27.194Z,97694.84
2023-04-03T00:18:56.106Z,97702.66
2023-04-03T00:21:24.933Z,97699.66
2023-04-03T00:23:53.690Z,97685.53
2023-04-03T00:26:22.570Z,97696.97
2023-04-03T00:28:51.380Z,97694.13
2023-04-03T00:31:20.140Z,97689.69
2023-04-03T00:33:48.945Z,97683.97
2023-04-03T00:36:18.031Z,97688.06
2023-04-03T00:38:47.101Z,97683.00
2023-04-03T00:41:15.933Z,97698.66
2023-04-03T00:43:44.872Z,97688.22
2023-04-03T00:46:13.653Z,97692.69
2023-04-03T00:48:50.079Z,97683.78
2023-04-03T00:51:25.673Z,97672.56
2023-04-03T00:54:00.460Z,97665.59
2023-04-03T00:56:31.755Z,97664.38
2023-04-03T00:59:13.084Z,97670.81
2023-04-03T01:01:44.614Z,97664.91
2023-04-03T01:04:36.307Z,97654.63
2023-04-03T01:07:29.754Z,97645.28
2023-04-03T01:10:02.263Z,97649.25
2023-04-03T01:12:35.371Z,97642.41
2023-04-03T01:15:13.372Z,97628.81
2023-04-03T01:17:48.856Z,97629.53
2023-04-03T01:20:30.132Z,97629.81
2023-04-03T01:23:11.562Z,97627.19
2023-04-03T01:25:53.214Z,97615.50
2023-04-03T01:28:23.955Z,97627.72
2023-04-03T01:31:02.946Z,97614.41
2023-04-03T01:33:34.678Z,97609.88
2023-04-03T01:36:04.610Z,97605.59
2023-04-03T01:38:34.560Z,97607.97
2023-04-03T01:41:03.496Z,97600.91
2023-04-03T01:43:33.071Z,97597.34
2023-04-03T01:46:02.159Z,97598.88
2023-04-03T01:48:31.044Z,97599.38
2023-04-03T01:50:59.769Z,97598.97
2023-04-03T01:53:29.050Z,97596.66
2023-04-03T01:55:57.836Z,97585.53
2023-04-03T01:58:26.887Z,97592.31
2023-04-03T02:00:57.584Z,97575.78
2023-04-03T02:03:26.872Z,97572.97
2023-04-03T02:05:55.588Z,97576.75
2023-04-03T02:08:24.462Z,97569.00
2023-04-03T02:10:53.674Z,97566.50
2023-04-03T02:13:22.573Z,97563.66
2023-04-03T02:15:51.802Z,97552.72
2023-04-03T02:18:20.574Z,97558.53
2023-04-03T02:20:49.651Z,97550.75
2023-04-03T02:23:18.436Z,97557.91
2023-04-03T02:25:47.217Z,97550.38
2023-04-03T02:28:15.891Z,97554.00
2023-04-03T02:30:44.743Z,97549.94
2023-04-03T02:33:13.452Z,97548.09
2023-04-03T02:35:42.538Z,97547.53
2023-04-03T02:38:11.467Z,97546.06
2023-04-03T02:40:40.233Z,97542.28
2023-04-03T02:43:08.992Z,97541.28
2023-04-03T02:45:39.569Z,97540.28
2023-04-03T02:48:09.096Z,97535.81
2023-04-03T02:50:38.041Z,97536.59
2023-04-03T02:53:07.048Z,97531.78
2023-04-03T02:55:36.107Z,97534.69
2023-04-03T02:58:06.194Z,97526.44
2023-04-03T03:00:37.791Z,97531.13
2023-04-03T03:03:07.176Z,97528.75
2023-04-03T03:05:36.386Z,97525.34
2023-04-03T03:08:05.149Z,97516.38
2023-04-03T03:10:33.987Z,97526.00
2023-04-03T03:13:03.308Z,97528.09
2023-04-03T03:15:32.131Z,97516.94
2023-04-03T03:18:01.384Z,97509.44
2023-04-03T03:20:30.208Z,97503.78
2023-04-03T03:23:00.474Z,97498.09
2023-04-03T03:25:29.260Z,97498.16
2023-04-03T03:27:57.999Z,97500.97
2023-04-03T03:30:27.672Z,97486.03
2023-04-03T03:32:56.516Z,97484.97
2023-04-03T03:35:25.367Z,97472.81
2023-04-03T03:37:54.217Z,97478.91
2023-04-03T03:40:23.345Z,97479.50
2023-04-03T03:42:52.227Z,97479.00
2023-04-03T03:45:21.231Z,97473.28
2023-04-03T03:47:49.981Z,97475.88
2023-04-03T03:50:19.000Z,97465.84
2023-04-03T03:52:47.996Z,97467.97
2023-04-03T03:55:17.048Z,97456.31
2023-04-03T03:57:46.351Z,97449.38
2023-04-03T04:00:18.083Z,97457.69
2023-04-03T04:02:55.231Z,97455.81
2023-04-03T04:05:27.130Z,97447.06
2023-04-03T04:07:56.706Z,97457.50
2023-04-03T04:10:26.753Z,97443.31
2023-04-03T04:12:57.411Z,97446.13
2023-04-03T04:15:29.042Z,97460.38
2023-04-03T04:17:59.566Z,97433.50
2023-04-03T04:20:28.390Z,97429.38
2023-04-03T04:22:57.124Z,97435.00
2023-04-03T04:25:27.908Z,97419.69
2023-04-03T04:27:57.092Z,97425.34
2023-04-03T04:30:26.150Z,97436.63
2023-04-03T04:32:55.926Z,97425.78
2023-04-03T04:35:25.052Z,97419.78
2023-04-03T04:37:54.829Z,97422.16
2023-04-03T04:40:24.500Z,97423.66
2023-04-03T04:42:53.397Z,97429.66
2023-04-03T04:45:23.043Z,97431.03
2023-04-03T04:47:53.938Z,97417.47
2023-04-03T04:50:23.172Z,97428.09
2023-04-03T04:52:53.225Z,97405.81
2023-04-03T04:55:22.322Z,97403.97
2023-04-03T04:57:52.050Z,97411.16
2023-04-03T05:00:23.394Z,97380.97
2023-04-03T05:02:53.044Z,97385.94
2023-04-03T05:05:22.274Z,97372.84
2023-04-03T05:07:51.356Z,97372.72
2023-04-03T05:10:21.005Z,97367.47
2023-04-03T05:12:50.316Z,97358.00
2023-04-03T05:15:19.465Z,97357.22
2023-04-03T05:17:48.922Z,97351.16
2023-04-03T05:20:19.550Z,97347.34
2023-04-03T05:22:49.511Z,97337.16
2023-04-03T05:25:18.585Z,97331.44
2023-04-03T05:27:47.502Z,97335.34
2023-04-03T05:30:16.489Z,97336.66
2023-04-03T05:32:48.996Z,97344.41
2023-04-03T05:35:29.645Z,97345.38
2023-04-03T05:38:01.449Z,97310.88
2023-04-03T05:40:31.840Z,97327.75
2023-04-03T05:43:00.970Z,97309.75
2023-04-03T05:45:33.967Z,97302.84
2023-04-03T05:48:03.003Z,97328.88
2023-04-03T05:50:33.056Z,97318.94
2023-04-03T05:53:04.926Z,97308.16
2023-04-03T05:55:35.736Z,97310.16
2023-04-03T05:58:05.103Z,97305.69
2023-04-03T06:00:34.785Z,97291.72
2023-04-03T06:03:05.980Z,97301.63
2023-04-03T06:05:35.432Z,97281.47
2023-04-03T06:08:04.822Z,97284.78
2023-04-03T06:10:33.753Z,97280.41
2023-04-03T06:13:02.901Z,97296.78
2023-04-03T06:15:32.308Z,97290.72
2023-04-03T06:18:01.613Z,97279.97
2023-04-03T06:20:30.671Z,97263.75
2023-04-03T06:23:02.557Z,97256.81
2023-04-03T06:25:31.469Z,97241.91
2023-04-03T06:28:00.363Z,97238.81
2023-04-03T06:30:29.300Z,97233.25
2023-04-03T06:32:58.218Z,97241.13
2023-04-03T06:35:27.881Z,97226.00
2023-04-03T06:37:56.969Z,97214.06
2023-04-03T06:40:27.945Z,97206.72
2023-04-03T06:42:56.777Z,97211.06
2023-04-03T06:45:27.187Z,97188.72
2023-04-03T06:47:56.220Z,97219.38
2023-04-03T06:50:25.217Z,97212.75
2023-04-03T06:52:54.055Z,97206.13
2023-04-03T06:55:23.257Z,97204.59
2023-04-03T06:57:52.504Z,97195.03
2023-04-03T07:00:22.859Z,97191.09
2023-04-03T07:02:52.001Z,97171.53
2023-04-03T07:05:21.828Z,97191.03
2023-04-03T07:07:51.792Z,97173.78
2023-04-03T07:10:21.064Z,97179.97
2023-04-03T07:12:49.799Z,97168.97
2023-04-03T07:15:18.999Z,97172.19
2023-04-03T07:17:48.082Z,97164.13
2023-04-03T07:20:17.480Z,97164.47
2023-04-03T07:22:46.747Z,97160.94
2023-04-03T07:25:15.795Z,97146.50
2023-04-03T07:27:44.917Z,97156.41
2023-04-03T07:30:15.650Z,97134.25
2023-04-03T07:32:45.208Z,97143.06
2023-04-03T07:35:14.531Z,97124.56
2023-04-03T07:37:43.505Z,97124.19
2023-04-03T07:40:12.852Z,97115.63
2023-04-03T07:42:41.921Z,97112.59
2023-04-03T07:45:11.348Z,97111.50
2023-04-03T07:47:40.217Z,97110.75
2023-04-03T07:50:09.760Z,97087.66
2023-04-03T07:52:38.587Z,97094.91
2023-04-03T07:55:08.092Z,97089.97
2023-04-03T07:57:36.999Z,97069.22
2023-04-03T08:00:08.263Z,97084.19
2023-04-03T08:02:43.903Z,97078.69
2023-04-03T08:05:13.133Z,97076.47
2023-04-03T08:07:42.069Z,97080.94
2023-04-03T08:10:11.125Z,97068.94
2023-04-03T08:12:41.462Z,97070.56
2023-04-03T08:15:10.833Z,97074.31
2023-04-03T08:17:39.803Z,97067.09
2023-04-03T08:20:09.806Z,97057.41
2023-04-03T08:22:38.624Z,97062.31
2023-04-03T08:25:08.385Z,97044.75
2023-04-03T08:27:37.237Z,97072.38
2023-04-03T08:30:07.216Z,97059.53
2023-04-03T08:32:37.906Z,97051.16
2023-04-03T08:35:07.929Z,97051.59
2023-04-03T08:37:38.348Z,97049.78
2023-04-03T08:40:12.593Z,97049.66
2023-04-03T08:42:55.790Z,97057.13
2023-04-03T08:45:56.984Z,97048.28
2023-04-03T08:48:44.812Z,97048.06
2023-04-03T08:51:21.325Z,97038.38
2023-04-03T08:54:07.042Z,97039.41
2023-04-03T08:56:37.511Z,97037.72
2023-04-03T08:59:13.867Z,97029.63
2023-04-03T09:01:45.455Z,97033.66
2023-04-03T09:04:18.009Z,97036.16
2023-04-03T09:06:54.484Z,97034.13
2023-04-03T09:09:44.297Z,97031.72
2023-04-03T09:12:19.852Z,97025.97
2023-04-03T09:14:56.520Z,97025.19
2023-04-03T09:17:46.644Z,97028.41
2023-04-03T09:20:44.508Z,97019.50
2023-04-03T09:23:31.890Z,97021.16
2023-04-03T09:26:10.434Z,97025.53
2023-04-03T09:28:50.394Z,97021.84
2023-04-03T09:31:29.341Z,97013.94
2023-04-03T09:34:05.316Z,97013.63
2023-04-03T09:36:46.783Z,97024.44
2023-04-03T09:39:24.644Z,97020.13
2023-04-03T09:42:24.352Z,97019.22
2023-04-03T09:44:59.100Z,97028.22
2023-04-03T09:47:31.586Z,97030.03
2023-04-03T09:50:15.982Z,97010.06
2023-04-03T09:52:48.203Z,97005.44
2023-04-03T09:55:28.478Z,97005.63
2023-04-03T09:58:03.396Z,97014.19
2023-04-03T10:00:40.040Z,97012.66
2023-04-03T10:03:29.022Z,97008.25
2023-04-03T10:06:00.794Z,97002.44
2023-04-03T10:08:32.613Z,96994.66
2023-04-03T10:11:28.326Z,97015.16
2023-04-03T10:14:07.287Z,97008.91
2023-04-03T10:16:43.446Z,97004.38
2023-04-03T10:19:15.122Z,97008.41
2023-04-03T10:21:59.697Z,97014.03
2023-04-03T10:24:49.545Z,97005.84
2023-04-03T10:27:43.282Z,97007.47
2023-04-03T10:30:27.948Z,97007.22
2023-04-03T10:33:35.619Z,97007.75
2023-04-03T10:36:35.242Z,96997.94
2023-04-03T10:39:23.976Z,97000.69
2023-04-03T10:42:28.842Z,97005.75
2023-04-03T10:45:28.406Z,97009.44
2023-04-03T10:48:00.215Z,97005.22
2023-04-03T10:51:00.307Z,97015.91
2023-04-03T10:53:48.647Z,97010.34
2023-04-03T10:56:33.767Z,97007.22
2023-04-03T10:59:39.040Z,97011.47
2023-04-03T11:02:14.642Z,97012.84
2023-04-03T11:04:47.783Z,97014.41
2023-04-03T11:07:23.713Z,97009.66
2023-04-03T11:10:05.295Z,97014.19
2023-04-03T11:12:54.646Z,97012.59
2023-04-03T11:15:25.532Z,97015.81
2023-04-03T11:18:00.289Z,97007.06
2023-04-03T11:20:34.649Z,97009.97
2023-04-03T11:23:08.080Z,97001.50
2023-04-03T11:25:41.371Z,97004.66
2023-04-03T11:28:16.287Z,97002.78
2023-04-03T11:31:16.596Z,97001.50
2023-04-03T11:34:03.821Z,96994.06
2023-04-03T11:36:53.507Z,96995.69
2023-04-03T11:39:49.647Z,96983.53
2023-04-03T11:42:40.523Z,96992.81
2023-04-03T11:45:30.977Z,96993.09
2023-04-03T11:48:16.767Z,96987.81
2023-04-03T11:50:53.548Z,96998.69
2023-04-03T11:53:34.591Z,96996.59
2023-04-03T11:56:22.697Z,96986.03
2023-04-03T11:59:23.200Z,96997.69
2023-04-03T12:01:58.185Z,97004.31
2023-04-03T12:04:29.311Z,97000.34
2023-04-03T12:07:24.388Z,97001.94
2023-04-03T12:09:58.258Z,96998.78
2023-04-03T12:12:41.131Z,96994.00
2023-04-03T12:15:46.967Z,96992.66
2023-04-03T12:18:53.144Z,96992.94
2023-04-03T12:21:29.993Z,96988.16
2023-04-03T12:24:11.527Z,96990.03
2023-04-03T12:26:48.943Z,96987.09
2023-04-03T12:29:30.413Z,96991.84
2023-04-03T12:32:27.592Z,96987.38
2023-04-03T12:35:18.468Z,96986.31
2023-04-03T12:38:11.958Z,96994.00
2023-04-03T12:40:44.668Z,96997.97
2023-04-03T12:43:55.535Z,97000.84
2023-04-03T12:46:25.974Z,96995.81
2023-04-03T12:48:57.026Z,96995.59
2023-04-03T12:51:40.122Z,96997.69
2023-04-03T12:54:43.764Z,97007.25
2023-04-03T12:57:21.013Z,97009.88
2023-04-03T12:59:50.261Z,96991.91
2023-04-03T13:02:23.046Z,96999.28
2023-04-03T13:04:54.182Z,97003.78
2023-04-03T13:07:34.821Z,97004.28
2023-04-03T13:10:06.227Z,97005.31
2023-04-03T13:12:48.460Z,97003.72
2023-04-03T13:15:28.172Z,97009.81
2023-04-03T13:17:58.254Z,97001.06
2023-04-03T13:20:33.766Z,97001.88
2023-04-03T13:23:13.543Z,97003.72
2023-04-03T13:25:45.400Z,96998.41
2023-04-03T13:28:19.512Z,97004.25
2023-04-03T13:31:12.314Z,96993.94
2023-04-03T13:34:04.674Z,96995.81
2023-04-03T13:36:47.541Z,96987.31
2023-04-03T13:39:16.567Z,96981.53
2023-04-03T13:41:48.449Z,96974.38
2023-04-03T13:44:41.365Z,96993.16
2023-04-03T13:47:24.278Z,96996.38
2023-04-03T13:50:13.625Z,97001.13
2023-04-03T13:52:53.558Z,96999.03
2023-04-03T13:55:35.082Z,96993.22
2023-04-03T13:58:24.532Z,96990.06
2023-04-03T14:01:20.326Z,96996.44
2023-04-03T14:04:02.397Z,96992.44
2023-04-03T14:06:31.586Z,96992.97
2023-04-03T14:09:00.452Z,96986.13
2023-04-03T14:11:32.392Z,96990.88
2023-04-03T14:14:07.916Z,96985.28
2023-04-03T14:16:43.135Z,96983.69
2023-04-03T14:19:21.225Z,96986.84
2023-04-03T14:21:52.338Z,96997.94
2023-04-03T14:24:22.775Z,96985.53
2023-04-03T14:26:54.676Z,96992.09
2023-04-03T14:29:24.105Z,96976.75
2023-04-03T14:32:00.658Z,96979.63
2023-04-03T14:34:40.687Z,96976.47
2023-04-03T14:37:15.233Z,96980.94
2023-04-03T14:39:45.112Z,96986.75
2023-04-03T14:42:17.996Z,96986.50
2023-04-03T14:44:47.196Z,96980.94
2023-04-03T14:47:29.906Z,96978.31
2023-04-03T14:50:02.883Z,96984.09
2023-04-03T14:52:37.593Z,96977.25
2023-04-03T14:55:07.869Z,96973.28
2023-04-03T14:57:37.052Z,96983.56
2023-04-03T15:00:09.709Z,96976.19
2023-04-03T15:02:40.862Z,96980.38
2023-04-03T15:05:12.168Z,96989.66
2023-04-03T15:07:50.117Z,96974.63
2023-04-03T15:10:25.279Z,96979.38
2023-04-03T15:12:54.860Z,96982.53
2023-04-03T15:15:25.630Z,96984.34
2023-04-03T15:17:56.807Z,96984.38
2023-04-03T15:20:28.626Z,96981.16
2023-04-03T15:23:02.696Z,96976.94
2023-04-03T15:25:31.738Z,96979.06
2023-04-03T15:28:01.559Z,96977.97
2023-04-03T15:30:30.541Z,96985.34
2023-04-03T15:32:59.668Z,96982.97
2023-04-03T15:35:28.709Z,96981.41
2023-04-03T15:37:58.113Z,96976.91
2023-04-03T15:40:28.023Z,96979.59
2023-04-03T15:42:57.318Z,96973.25
2023-04-03T15:45:26.376Z,96984.34
2023-04-03T15:47:55.507Z,96986.75
2023-04-03T15:50:27.188Z,96988.88
2023-04-03T15:52:56.683Z,96987.31
2023-04-03T15:55:29.898Z,96985.16
2023-04-03T15:57:59.163Z,96974.34
2023-04-03T16:00:29.917Z,96979.38
2023-04-03T16:03:06.498Z,96985.97
2023-04-03T16:05:38.758Z,96984.63
2023-04-03T16:08:09.429Z,96978.78
2023-04-03T16:10:39.375Z,96975.06
2023-04-03T16:13:08.804Z,96989.03
2023-04-03T16:15:37.715Z,96990.38
2023-04-03T16:18:07.147Z,96989.03
2023-04-03T16:20:37.152Z,96984.03
2023-04-03T16:23:07.783Z,96971.31
2023-04-03T16:25:37.704Z,96979.50
2023-04-03T16:28:08.190Z,96978.69
2023-04-03T16:30:37.203Z,96968.91
2023-04-03T16:33:06.379Z,96967.03
2023-04-03T16:35:35.846Z,96968.09
2023-04-03T16:38:05.613Z,96954.88
2023-04-03T16:40:35.419Z,96956.22
2023-04-03T16:43:04.620Z,96964.19
2023-04-03T16:45:33.725Z,96954.69
2023-04-03T16:48:02.748Z,96961.56
2023-04-03T16:50:31.781Z,96948.84
2023-04-03T16:53:00.977Z,96956.81
2023-04-03T16:55:30.278Z,96958.13
2023-04-03T16:57:59.481Z,96964.72
2023-04-03T17:00:32.131Z,96954.97
2023-04-03T17:03:02.388Z,96955.47
2023-04-03T17:05:31.811Z,96954.13
2023-04-03T17:08:02.662Z,96946.69
2023-04-03T17:10:32.016Z,96954.56
2023-04-03T17:13:00.979Z,96949.50
2023-04-03T17:15:29.933Z,96952.13
2023-04-03T17:17:58.951Z,96955.75
2023-04-03T17:20:28.355Z,96948.63
2023-04-03T17:22:57.406Z,96949.63
2023-04-03T17:25:41.501Z,96948.03
2023-04-03T17:28:10.870Z,96948.25
2023-04-03T17:30:40.339Z,96943.19
2023-04-03T17:33:09.226Z,96937.41
2023-04-03T17:35:38.412Z,96939.25
2023-04-03T17:38:07.639Z,96934.97
2023-04-03T17:40:36.502Z,96936.00
2023-04-03T17:43:05.520Z,96934.97
2023-04-03T17:45:34.354Z,96929.19
2023-04-03T17:48:03.191Z,96932.28
2023-04-03T17:50:32.313Z,96920.97
2023-04-03T17:53:01.148Z,96919.94
2023-04-03T17:55:30.337Z,96909.09
2023-04-03T17:57:59.292Z,96913.06
2023-04-03T18:00:29.151Z,96908.03
2023-04-03T18:02:58.594Z,96905.94
2023-04-03T18:05:31.843Z,96913.34
2023-04-03T18:08:02.378Z,96900.69
2023-04-03T18:10:31.385Z,96902.56
2023-04-03T18:13:00.291Z,96908.94
2023-04-03T18:15:29.165Z,96897.91
2023-04-03T18:17:58.676Z,96902.97
2023-04-03T18:20:27.661Z,96897.72
2023-04-03T18:22:56.548Z,96899.59
2023-04-03T18:25:25.537Z,96881.59
2023-04-03T18:27:54.481Z,96889.81
2023-04-03T18:30:24.209Z,96891.63
2023-04-03T18:32:53.350Z,96882.34
2023-04-03T18:35:22.346Z,96868.31
2023-04-03T18:37:51.745Z,96872.25
2023-04-03T18:40:20.634Z,96866.19
2023-04-03T18:42:49.837Z,96867.22
2023-04-03T18:45:24.548Z,96854.56
2023-04-03T18:47:53.679Z,96856.97
2023-04-03T18:50:22.763Z,96857.25
2023-04-03T18:52:51.689Z,96854.38
2023-04-03T18:55:21.335Z,96851.47
2023-04-03T18:57:50.707Z,96860.19
2023-04-03T19:00:20.443Z,96851.78
2023-04-03T19:02:50.577Z,96837.81
2023-04-03T19:05:20.897Z,96851.28
2023-04-03T19:07:50.462Z,96854.22
2023-04-03T19:10:20.743Z,96843.41
2023-04-03T19:12:51.416Z,96849.53
2023-04-03T19:15:22.753Z,96844.50
2023-04-03T19:17:52.554Z,96841.63
2023-04-03T19:20:21.680Z,96851.41
2023-04-03T19:22:50.609Z,96840.31
2023-04-03T19:25:21.066Z,96848.00
2023-04-03T19:27:50.504Z,96850.66
2023-04-03T19:30:19.357Z,96846.44
2023-04-03T19:32:48.163Z,96850.94
2023-04-03T19:35:17.047Z,96850.94
2023-04-03T19:37:49.497Z,96845.38
2023-04-03T19:40:19.142Z,96847.25
2023-04-03T19:42:48.204Z,96849.09
2023-04-03T19:45:18.616Z,96840.13
2023-04-03T19:47:47.986Z,96842.50
2023-04-03T19:50:16.919Z,96836.94
2023-04-03T19:52:45.952Z,96826.38
2023-04-03T19:55:15.478Z,96826.66
2023-04-03T19:57:44.464Z,96827.44
2023-04-03T20:00:15.068Z,96824.56
2023-04-03T20:02:44.039Z,96827.72
2023-04-03T20:05:13.137Z,96815.84
2023-04-03T20:07:42.325Z,96821.38
2023-04-03T20:10:12.776Z,96812.66
2023-04-03T20:12:41.705Z,96826.63
2023-04-03T20:15:11.952Z,96824.50
2023-04-03T20:17:41.276Z,96822.38
2023-04-03T20:20:10.954Z,96816.56
2023-04-03T20:22:40.458Z,96825.53
2023-04-03T20:25:17.446Z,96816.81
2023-04-03T20:27:54.835Z,96808.91
2023-04-03T20:30:23.578Z,96809.44
2023-04-03T20:32:52.394Z,96805.22
2023-04-03T20:35:22.729Z,96795.97
2023-04-03T20:37:51.648Z,96798.06
2023-04-03T20:40:20.368Z,96803.34
2023-04-03T20:42:49.198Z,96801.22
2023-04-03T20:45:19.036Z,96798.31
2023-04-03T20:47:48.654Z,96784.06
2023-04-03T20:50:17.532Z,96794.06
2023-04-03T20:52:46.386Z,96793.31
2023-04-03T20:55:18.897Z,96797.25
2023-04-03T20:57:54.208Z,96784.81
2023-04-03T21:00:24.579Z,96787.44
2023-04-03T21:02:57.445Z,96792.47
2023-04-03T21:05:28.139Z,96784.31
2023-04-03T21:08:36.386Z,96785.88
2023-04-03T21:11:41.946Z,96783.78
2023-04-03T21:14:49.046Z,96790.13
2023-04-03T21:17:17.722Z,96781.16
2023-04-03T21:19:47.713Z,96767.41
2023-04-03T21:22:17.408Z,96779.28
2023-04-03T21:24:46.216Z,96766.66
2023-04-03T21:27:15.002Z,96760.06
2023-04-03T21:29:44.292Z,96761.91
2023-04-03T21:32:13.070Z,96762.44
2023-04-03T21:34:41.835Z,96766.13
2023-04-03T21:37:12.310Z,96753.72
2023-04-03T21:39:42.572Z,96753.72
2023-04-03T21:42:11.643Z,96748.97
2023-04-03T21:44:42.260Z,96751.09
2023-04-03T21:47:12.062Z,96754.50
2023-04-03T21:49:40.824Z,96751.88
2023-04-03T21:52:09.663Z,96752.13
2023-04-03T21:54:38.470Z,96747.13
2023-04-03T21:57:11.003Z,96739.75
2023-04-03T21:59:39.883Z,96747.13
2023-04-03T22:02:09.553Z,96740.81
2023-04-03T22:04:38.487Z,96737.63
2023-04-03T22:07:07.268Z,96731.31
2023-04-03T22:09:36.008Z,96737.38
2023-04-03T22:12:05.305Z,96730.75
2023-04-03T22:14:34.050Z,96723.63
2023-04-03T22:17:03.032Z,96735.25
2023-04-03T22:19:31.899Z,96728.41
2023-04-03T22:22:02.811Z,96724.19
2023-04-03T22:24:31.634Z,96719.41
2023-04-03T22:27:00.374Z,96722.84
2023-04-03T22:29:29.186Z,96708.59
2023-04-03T22:31:57.986Z,96713.91
2023-04-03T22:34:26.845Z,96702.25
2023-04-03T22:36:55.597Z,96699.38
2023-04-03T22:39:24.355Z,96694.59
2023-04-03T22:41:53.190Z,96694.09
2023-04-03T22:44:22.255Z,96706.50
2023-04-03T22:46:52.551Z,96707.81
2023-04-03T22:49:21.431Z,96702.25
2023-04-03T22:51:50.750Z,96704.63
2023-04-03T22:54:19.530Z,96701.22
2023-04-03T22:56:48.357Z,96703.06
2023-04-03T22:59:17.168Z,96704.66
2023-04-03T23:01:46.620Z,96702.53
2023-04-03T23:04:15.784Z,96701.19
2023-04-03T23:06:44.508Z,96702.28
2023-04-03T23:09:13.303Z,96693.81
2023-04-03T23:11:42.014Z,96697.78
2023-04-03T23:14:10.880Z,96691.94
2023-04-03T23:16:39.647Z,96685.06
2023-04-03T23:19:09.116Z,96693.53
2023-04-03T23:21:38.289Z,96695.38
2023-04-03T23:24:07.538Z,96690.09
2023-04-03T23:26:36.209Z,96684.28
2023-04-03T23:29:04.987Z,96682.16
2023-04-03T23:31:33.898Z,96681.63
2023-04-03T23:34:02.693Z,96673.69
2023-04-03T23:36:31.439Z,96674.19
2023-04-03T23:39:00.247Z,96678.94
2023-04-03T23:41:29.099Z,96672.88
2023-04-03T23:43:57.823Z,96674.69
2023-04-03T23:46:27.412Z,96662.00
2023-04-03T23:48:56.172Z,96663.28
2023-04-03T23:51:25.015Z,96653.75
2023-04-03T23:53:54.181Z,96659.56
2023-04-03T23:56:22.998Z,96667.47
2023-04-03T23:58:52.187Z,96656.09
